Time;durP1;ratioP1;P1;durP2;ratioP2;P2;SDS_P1;SDS_P2;PMS_P1;PMS_P2;Temp;Humidity;BMP_temperature;BMP_pressure;BME280_temperature;BME280_humidity;BME280_pressure;Samples;Min_cycle;Max_cycle;Signal;HPM_P1;HPM_P2
2021/10/16 00:00:09;;;;;;;;;21.00;21.00;;;;;;;;5118182;28;8829;-79
2021/10/16 00:02:34;;;;;;;;;16.67;16.67;;;;;;;;5119354;27;8902;-78
2021/10/16 00:04:59;;;;;;;;;18.67;18.00;;;;;;;;5118146;28;8795;-78
2021/10/16 00:07:25;;;;;;;;;15.33;13.33;;;;;;;;5119333;28;8787;-78
2021/10/16 00:09:50;;;;;;;;;14.33;14.33;;;;;;;;5118003;28;8845;-79
2021/10/16 00:12:15;;;;;;;;;12.00;11.00;;;;;;;;5117888;28;8811;-78
2021/10/16 00:14:40;;;;;;;;;16.33;15.00;;;;;;;;5119153;27;8847;-78
2021/10/16 00:17:06;;;;;;;;;11.67;11.67;;;;;;;;5119039;27;8806;-78
2021/10/16 00:19:31;;;;;;;;;12.33;11.00;;;;;;;;5117874;28;8794;-79
2021/10/16 00:21:56;;;;;;;;;14.67;14.00;;;;;;;;5117843;27;8813;-79
2021/10/16 00:24:21;;;;;;;;;15.67;15.67;;;;;;;;5117884;28;8901;-78
2021/10/16 00:26:47;;;;;;;;;12.67;12.67;;;;;;;;5117914;28;8879;-78
2021/10/16 00:29:12;;;;;;;;;13.00;13.00;;;;;;;;5118843;27;8799;-78
2021/10/16 00:31:37;;;;;;;;;14.33;13.33;;;;;;;;5138596;27;8930;-78
2021/10/16 00:34:02;;;;;;;;;11.33;10.33;;;;;;;;5139740;27;8788;-78
2021/10/16 00:36:28;;;;;;;;;13.00;10.67;;;;;;;;5139501;27;8814;-78
2021/10/16 00:38:53;;;;;;;;;14.00;12.67;;;;;;;;5137132;27;8834;-79
2021/10/16 00:41:18;;;;;;;;;13.67;13.67;;;;;;;;5138142;27;8922;-78
2021/10/16 00:43:44;;;;;;;;;13.33;12.00;;;;;;;;5137901;27;8823;-78
2021/10/16 00:46:09;;;;;;;;;15.00;14.00;;;;;;;;5138074;27;8820;-78
2021/10/16 00:48:34;;;;;;;;;10.67;10.67;;;;;;;;5139288;27;8772;-78
2021/10/16 00:51:00;;;;;;;;;8.33;8.00;;;;;;;;5139153;27;8816;-79
2021/10/16 00:53:25;;;;;;;;;13.00;13.00;;;;;;;;5138001;27;8780;-78
2021/10/16 00:55:51;;;;;;;;;12.00;12.00;;;;;;;;5139178;27;8760;-79
2021/10/16 00:58:17;;;;;;;;;13.00;12.67;;;;;;;;5137908;27;9579;-79
2021/10/16 01:00:42;;;;;;;;;10.25;10.25;;;;;;;;5139192;27;8769;-79
2021/10/16 01:03:08;;;;;;;;;10.00;10.00;;;;;;;;5137683;27;8812;-78
2021/10/16 01:05:34;;;;;;;;;13.67;11.67;;;;;;;;5138942;27;8796;-78
2021/10/16 01:08:00;;;;;;;;;13.00;13.00;;;;;;;;5137653;27;8780;-78
2021/10/16 01:10:25;;;;;;;;;12.75;10.00;;;;;;;;5138990;27;8812;-79
2021/10/16 01:12:51;;;;;;;;;15.00;15.00;;;;;;;;5137521;27;8804;-78
2021/10/16 01:15:16;;;;;;;;;11.00;11.00;;;;;;;;5139019;27;8815;-78
2021/10/16 01:17:44;;;;;;;;;11.00;11.00;;;;;;;;5138846;27;8788;-78
2021/10/16 01:20:11;;;;;;;;;9.00;9.00;;;;;;;;5138708;27;8887;-78
2021/10/16 01:22:37;;;;;;;;;10.25;10.00;;;;;;;;5138675;27;8765;-78
2021/10/16 01:25:03;;;;;;;;;11.25;10.00;;;;;;;;5138845;27;8868;-78
2021/10/16 01:27:29;;;;;;;;;13.25;13.00;;;;;;;;5138796;27;9859;-78
2021/10/16 01:29:54;;;;;;;;;12.00;12.00;;;;;;;;5133290;27;8985;-78
2021/10/16 01:32:19;;;;;;;;;10.33;10.33;;;;;;;;5117690;27;8849;-79
2021/10/16 01:34:45;;;;;;;;;14.33;12.67;;;;;;;;5118201;27;8893;-79
2021/10/16 01:37:10;;;;;;;;;10.67;10.67;;;;;;;;5117955;27;8795;-78
2021/10/16 01:39:35;;;;;;;;;13.00;12.00;;;;;;;;5118095;27;8803;-79
2021/10/16 01:42:01;;;;;;;;;12.67;12.67;;;;;;;;5118089;27;8814;-78
2021/10/16 01:44:26;;;;;;;;;12.00;12.00;;;;;;;;5117910;27;8783;-79
2021/10/16 01:46:51;;;;;;;;;10.33;10.00;;;;;;;;5117573;27;8821;-78
2021/10/16 01:49:17;;;;;;;;;12.00;10.67;;;;;;;;5117848;27;8786;-78
2021/10/16 01:51:44;;;;;;;;;12.00;11.50;;;;;;;;5117052;27;9156;-78
2021/10/16 01:54:10;;;;;;;;;14.50;13.00;;;;;;;;5117813;27;8783;-79
2021/10/16 01:56:35;;;;;;;;;11.67;11.00;;;;;;;;5117754;27;8794;-78
2021/10/16 01:59:13;;;;;;;;;12.00;12.00;;;;;;;;5117747;27;8818;-79
2021/10/16 02:01:39;;;;;;;;;10.75;10.75;;;;;;;;5117492;27;8763;-78
2021/10/16 02:04:04;;;;;;;;;12.00;11.00;;;;;;;;5117506;27;8809;-78
2021/10/16 02:06:29;;;;;;;;;13.33;11.33;;;;;;;;5117528;27;8787;-78
2021/10/16 02:08:55;;;;;;;;;15.67;15.00;;;;;;;;5116283;28;8850;-79
2021/10/16 02:11:20;;;;;;;;;13.33;13.00;;;;;;;;5117472;28;8819;-78
2021/10/16 02:13:45;;;;;;;;;12.67;12.67;;;;;;;;5117207;27;9612;-78
2021/10/16 02:16:10;;;;;;;;;14.00;12.67;;;;;;;;5117464;27;8803;-78
2021/10/16 02:18:36;;;;;;;;;15.33;13.33;;;;;;;;5117272;27;8817;-78
2021/10/16 02:21:01;;;;;;;;;13.33;13.00;;;;;;;;5116122;28;8807;-78
2021/10/16 02:23:26;;;;;;;;;11.00;10.00;;;;;;;;5117198;28;8798;-78
2021/10/16 02:25:51;;;;;;;;;13.00;13.00;;;;;;;;5115953;28;8831;-78
2021/10/16 02:28:17;;;;;;;;;12.00;12.00;;;;;;;;5117282;27;8790;-79
2021/10/16 02:30:42;;;;;;;;;10.67;10.67;;;;;;;;5128814;27;8873;-78
2021/10/16 02:33:07;;;;;;;;;11.00;11.00;;;;;;;;5137656;27;8857;-78
2021/10/16 02:35:32;;;;;;;;;14.67;12.00;;;;;;;;5137822;27;8796;-79
2021/10/16 02:37:58;;;;;;;;;12.33;11.67;;;;;;;;5136145;27;8923;-78
2021/10/16 02:40:23;;;;;;;;;12.00;10.33;;;;;;;;5137713;27;8839;-79
2021/10/16 02:42:48;;;;;;;;;8.33;8.33;;;;;;;;5137639;27;8815;-78
2021/10/16 02:45:13;;;;;;;;;10.67;10.67;;;;;;;;5137815;27;8769;-78
2021/10/16 02:47:39;;;;;;;;;16.00;13.67;;;;;;;;5137410;27;10076;-79
2021/10/16 02:50:04;;;;;;;;;14.33;14.33;;;;;;;;5137148;27;8809;-78
2021/10/16 02:52:29;;;;;;;;;11.00;11.00;;;;;;;;5137377;27;8868;-78
2021/10/16 02:54:54;;;;;;;;;10.67;10.33;;;;;;;;5137575;27;8881;-78
2021/10/16 02:57:20;;;;;;;;;12.67;12.67;;;;;;;;5137381;27;8797;-78
2021/10/16 02:59:45;;;;;;;;;11.00;10.33;;;;;;;;5137410;27;8796;-78
2021/10/16 03:02:10;;;;;;;;;15.33;13.67;;;;;;;;5136542;27;8785;-78
2021/10/16 03:04:35;;;;;;;;;12.00;9.33;;;;;;;;5141160;27;8768;-78
2021/10/16 03:07:01;;;;;;;;;11.67;11.33;;;;;;;;5141009;27;8801;-79
2021/10/16 03:09:26;;;;;;;;;10.67;10.67;;;;;;;;5140962;27;8850;-79
2021/10/16 03:11:51;;;;;;;;;15.33;14.00;;;;;;;;5139635;27;8821;-78
2021/10/16 03:14:16;;;;;;;;;12.67;11.67;;;;;;;;5140858;27;8788;-78
2021/10/16 03:16:42;;;;;;;;;15.00;14.00;;;;;;;;5140813;27;8800;-78
2021/10/16 03:19:07;;;;;;;;;9.67;9.67;;;;;;;;5139417;27;8889;-78
2021/10/16 03:21:32;;;;;;;;;11.00;11.00;;;;;;;;5139386;27;8820;-78
2021/10/16 03:23:58;;;;;;;;;13.50;13.50;;;;;;;;5140766;27;8831;-78
2021/10/16 03:26:24;;;;;;;;;12.00;12.00;;;;;;;;5140731;27;8796;-78
2021/10/16 03:28:49;;;;;;;;;13.67;12.33;;;;;;;;5140593;27;8796;-78
2021/10/16 03:31:14;;;;;;;;;12.33;10.00;;;;;;;;5122477;27;8831;-78
2021/10/16 03:33:39;;;;;;;;;13.67;12.33;;;;;;;;5119825;27;8906;-78
2021/10/16 03:36:05;;;;;;;;;12.00;11.67;;;;;;;;5120039;27;8895;-78
2021/10/16 03:38:30;;;;;;;;;11.00;11.00;;;;;;;;5119916;27;8922;-79
2021/10/16 03:40:55;;;;;;;;;10.67;10.67;;;;;;;;5119907;27;8779;-78
2021/10/16 03:43:20;;;;;;;;;10.67;10.67;;;;;;;;5118586;28;8807;-78
2021/10/16 03:45:46;;;;;;;;;12.67;12.33;;;;;;;;5119844;28;8775;-78
2021/10/16 03:48:11;;;;;;;;;10.67;10.00;;;;;;;;5119655;27;9581;-78
2021/10/16 03:50:36;;;;;;;;;13.00;12.00;;;;;;;;5119646;27;8877;-78
2021/10/16 03:53:02;;;;;;;;;13.00;11.67;;;;;;;;5119625;27;8881;-78
2021/10/16 03:55:27;;;;;;;;;13.67;12.33;;;;;;;;5119560;27;8798;-78
2021/10/16 03:57:52;;;;;;;;;11.33;11.33;;;;;;;;5119627;27;8841;-78
2021/10/16 04:00:20;;;;;;;;;12.00;11.67;;;;;;;;5119512;27;8795;-78
2021/10/16 04:02:48;;;;;;;;;12.50;11.50;;;;;;;;5118104;28;8908;-78
2021/10/16 04:05:14;;;;;;;;;22.00;20.33;;;;;;;;5119557;27;8881;-78
2021/10/16 04:07:39;;;;;;;;;39.00;34.00;;;;;;;;5119394;27;8900;-78
2021/10/16 04:10:05;;;;;;;;;20.00;20.00;;;;;;;;5117883;28;8807;-78
2021/10/16 04:12:30;;;;;;;;;15.00;14.67;;;;;;;;5119369;27;8876;-79
2021/10/16 04:14:56;;;;;;;;;14.00;13.33;;;;;;;;5119138;27;9582;-78
2021/10/16 04:17:21;;;;;;;;;13.00;12.67;;;;;;;;5119142;27;8795;-77
2021/10/16 04:19:46;;;;;;;;;12.33;11.00;;;;;;;;5119367;27;8810;-78
2021/10/16 04:22:11;;;;;;;;;14.00;14.00;;;;;;;;5117841;28;9613;-77
2021/10/16 04:24:36;;;;;;;;;13.00;13.00;;;;;;;;5119384;27;8771;-78
2021/10/16 04:27:02;;;;;;;;;12.67;12.67;;;;;;;;5117789;28;8907;-78
2021/10/16 04:29:27;;;;;;;;;15.00;14.67;;;;;;;;5120095;27;8816;-78
2021/10/16 04:31:52;;;;;;;;;14.00;14.00;;;;;;;;5139612;27;8816;-77
2021/10/16 04:34:18;;;;;;;;;14.33;14.33;;;;;;;;5139839;27;8785;-77
2021/10/16 04:36:43;;;;;;;;;13.33;12.00;;;;;;;;5139544;27;8805;-78
2021/10/16 04:39:08;;;;;;;;;14.67;14.00;;;;;;;;5139703;27;8879;-77
2021/10/16 04:41:35;;;;;;;;;11.33;11.33;;;;;;;;5139614;27;8948;-78
2021/10/16 04:44:00;;;;;;;;;14.50;12.25;;;;;;;;5139623;27;8780;-78
2021/10/16 04:46:25;;;;;;;;;12.67;11.00;;;;;;;;5138017;27;8819;-77
2021/10/16 04:48:51;;;;;;;;;12.33;12.00;;;;;;;;5139544;27;8796;-77
2021/10/16 04:51:16;;;;;;;;;17.67;16.33;;;;;;;;5137746;27;8808;-77
2021/10/16 04:53:41;;;;;;;;;14.67;13.33;;;;;;;;5139372;27;8788;-80
2021/10/16 04:56:06;;;;;;;;;15.00;15.00;;;;;;;;5139430;27;8776;-78
2021/10/16 04:58:32;;;;;;;;;14.33;13.67;;;;;;;;5139177;27;8819;-78
2021/10/16 05:00:57;;;;;;;;;16.67;15.33;;;;;;;;5137974;27;8828;-79
2021/10/16 05:03:23;;;;;;;;;19.33;15.33;;;;;;;;5138979;27;8800;-79
2021/10/16 05:05:48;;;;;;;;;16.67;16.33;;;;;;;;5139225;27;8780;-79
2021/10/16 05:08:13;;;;;;;;;20.67;19.00;;;;;;;;5138970;27;8788;-80
2021/10/16 05:10:39;;;;;;;;;19.33;16.67;;;;;;;;5138858;27;8803;-78
2021/10/16 05:13:04;;;;;;;;;16.33;16.33;;;;;;;;5138801;27;8955;-78
2021/10/16 05:15:29;;;;;;;;;14.33;14.33;;;;;;;;5138864;27;8831;-79
2021/10/16 05:17:54;;;;;;;;;29.33;27.00;;;;;;;;5138745;27;8820;-79
2021/10/16 05:20:20;;;;;;;;;28.67;27.00;;;;;;;;5137485;27;8808;-78
2021/10/16 05:22:46;;;;;;;;;21.00;19.00;;;;;;;;5138659;27;8824;-78
2021/10/16 05:25:12;;;;;;;;;19.00;17.33;;;;;;;;5136787;27;8822;-79
2021/10/16 05:27:38;;;;;;;;;14.00;13.33;;;;;;;;5138781;27;8772;-78
2021/10/16 05:30:04;;;;;;;;;14.33;14.00;;;;;;;;5131847;27;8766;-78
2021/10/16 05:32:29;;;;;;;;;16.00;15.00;;;;;;;;5117888;27;9630;-78
2021/10/16 05:34:54;;;;;;;;;14.67;11.67;;;;;;;;5118037;27;8892;-79
2021/10/16 05:37:19;;;;;;;;;16.00;13.00;;;;;;;;5116414;28;8807;-76
2021/10/16 05:39:45;;;;;;;;;14.00;12.00;;;;;;;;5108501;27;8819;-76
2021/10/16 05:42:10;;;;;;;;;12.33;12.33;;;;;;;;5106373;28;8817;-78
2021/10/16 05:44:35;;;;;;;;;12.33;11.67;;;;;;;;5106988;27;8826;-79
2021/10/16 05:47:01;;;;;;;;;14.00;12.33;;;;;;;;5107387;28;8836;-78
2021/10/16 05:49:26;;;;;;;;;14.00;13.00;;;;;;;;5109779;27;8819;-80
2021/10/16 05:51:51;;;;;;;;;13.33;12.00;;;;;;;;5116236;28;8810;-76
2021/10/16 05:54:17;;;;;;;;;13.33;13.00;;;;;;;;5116424;28;8841;-78
2021/10/16 05:56:42;;;;;;;;;12.00;12.00;;;;;;;;5117796;27;8845;-74
2021/10/16 05:59:07;;;;;;;;;12.00;12.00;;;;;;;;5117755;27;8799;-76
2021/10/16 06:01:32;;;;;;;;;13.00;12.33;;;;;;;;5117422;27;8819;-75
2021/10/16 06:03:57;;;;;;;;;15.00;13.67;;;;;;;;5117619;27;8842;-78
2021/10/16 06:06:23;;;;;;;;;11.67;11.67;;;;;;;;5116146;28;9606;-78
2021/10/16 06:08:48;;;;;;;;;12.00;11.00;;;;;;;;5117674;27;8818;-78
2021/10/16 06:11:13;;;;;;;;;14.00;11.67;;;;;;;;5117373;27;8858;-78
2021/10/16 06:13:38;;;;;;;;;15.00;14.67;;;;;;;;5117126;28;8911;-78
2021/10/16 06:16:04;;;;;;;;;12.33;12.33;;;;;;;;5117419;27;8791;-75
2021/10/16 06:18:29;;;;;;;;;14.67;14.33;;;;;;;;5117351;27;8826;-75
2021/10/16 06:20:54;;;;;;;;;12.67;12.67;;;;;;;;5116116;28;8811;-75
2021/10/16 06:23:20;;;;;;;;;17.00;13.67;;;;;;;;5117385;27;8841;-76
2021/10/16 06:25:45;;;;;;;;;13.67;12.67;;;;;;;;5117197;27;8858;-75
2021/10/16 06:28:17;;;;;;;;;15.67;15.67;;;;;;;;5117095;28;8779;-75
2021/10/16 06:30:43;;;;;;;;;19.00;18.33;;;;;;;;5116625;28;8927;-75
2021/10/16 06:33:08;;;;;;;;;17.67;16.67;;;;;;;;5117047;27;8966;-78
2021/10/16 06:35:37;;;;;;;;;19.00;18.00;;;;;;;;5115723;28;8855;-78
2021/10/16 06:38:02;;;;;;;;;17.33;16.67;;;;;;;;5115878;27;8856;-75
2021/10/16 06:40:27;;;;;;;;;20.00;20.00;;;;;;;;5117043;27;8914;-78
2021/10/16 06:42:53;;;;;;;;;19.33;18.33;;;;;;;;5115450;28;8815;-79
2021/10/16 06:45:24;;;;;;;;;15.33;13.67;;;;;;;;5116983;27;8930;-78
2021/10/16 06:47:50;;;;;;;;;15.25;15.25;;;;;;;;5115138;28;8795;-75
2021/10/16 06:50:15;;;;;;;;;18.33;15.33;;;;;;;;5109767;28;8837;-74
2021/10/16 06:52:40;;;;;;;;;16.67;13.33;;;;;;;;5094894;28;8813;-76
2021/10/16 06:55:06;;;;;;;;;16.33;14.33;;;;;;;;5096332;28;8863;-76
2021/10/16 06:57:31;;;;;;;;;14.67;12.00;;;;;;;;5096364;28;8828;-75
2021/10/16 06:59:57;;;;;;;;;11.67;11.67;;;;;;;;5096266;28;8794;-74
2021/10/16 07:02:22;;;;;;;;;11.67;11.67;;;;;;;;5096001;28;8806;-75
2021/10/16 07:04:47;;;;;;;;;14.33;13.33;;;;;;;;5096530;28;8778;-75
2021/10/16 07:07:12;;;;;;;;;14.00;14.00;;;;;;;;5094905;28;8868;-74
2021/10/16 07:09:38;;;;;;;;;17.67;16.67;;;;;;;;5096211;28;8801;-74
2021/10/16 07:12:03;;;;;;;;;16.00;15.00;;;;;;;;5096287;28;8794;-77
2021/10/16 07:14:29;;;;;;;;;15.33;14.33;;;;;;;;5094528;28;8871;-76
2021/10/16 07:16:54;;;;;;;;;12.33;12.33;;;;;;;;5094737;28;8794;-77
2021/10/16 07:19:20;;;;;;;;;16.33;16.33;;;;;;;;5094707;28;8789;-74
2021/10/16 07:21:45;;;;;;;;;22.33;18.67;;;;;;;;5096004;28;8801;-77
2021/10/16 07:24:11;;;;;;;;;14.67;13.67;;;;;;;;5094766;28;9636;-76
2021/10/16 07:26:38;;;;;;;;;13.50;13.50;;;;;;;;5094658;28;8841;-78
2021/10/16 07:29:03;;;;;;;;;16.75;16.00;;;;;;;;5094496;28;8797;-77
2021/10/16 07:31:31;;;;;;;;;18.00;15.00;;;;;;;;5113877;28;8835;-75
2021/10/16 07:33:59;;;;;;;;;16.25;15.00;;;;;;;;5115057;28;8795;-74
2021/10/16 07:36:25;;;;;;;;;15.00;13.75;;;;;;;;5114249;28;8815;-74
2021/10/16 07:38:50;;;;;;;;;16.00;16.00;;;;;;;;5116402;27;8867;-75
2021/10/16 07:41:15;;;;;;;;;15.33;15.00;;;;;;;;5116243;27;8926;-75
2021/10/16 07:43:40;;;;;;;;;14.33;14.33;;;;;;;;5116360;27;8881;-76
2021/10/16 07:46:11;;;;;;;;;16.00;15.67;;;;;;;;5114857;28;10547;-78
2021/10/16 07:48:41;;;;;;;;;12.50;11.50;;;;;;;;5115662;28;8779;-74
2021/10/16 07:51:12;;;;;;;;;14.00;14.00;;;;;;;;5117693;28;8745;-77
2021/10/16 07:53:38;;;;;;;;;12.00;11.25;;;;;;;;5118000;28;8868;-77
2021/10/16 07:56:03;;;;;;;;;16.33;14.67;;;;;;;;5118116;28;8794;-77
2021/10/16 07:58:29;;;;;;;;;14.33;14.00;;;;;;;;5118259;28;8873;-74
2021/10/16 08:00:54;;;;;;;;;16.00;15.00;;;;;;;;5117640;28;9596;-78
2021/10/16 08:03:19;;;;;;;;;10.67;10.67;;;;;;;;5119341;27;9536;-74
2021/10/16 08:05:45;;;;;;;;;13.33;12.33;;;;;;;;5119574;27;8804;-74
2021/10/16 08:08:12;;;;;;;;;12.00;11.33;;;;;;;;5119365;27;8779;-73
2021/10/16 08:10:37;;;;;;;;;12.50;11.50;;;;;;;;5112738;27;8862;-74
2021/10/16 08:13:02;;;;;;;;;14.67;14.67;;;;;;;;5097167;28;9529;-75
2021/10/16 08:15:28;;;;;;;;;14.33;14.33;;;;;;;;5096476;28;8822;-76
2021/10/16 08:17:53;;;;;;;;;15.67;14.00;;;;;;;;5096954;28;8806;-76
2021/10/16 08:20:19;;;;;;;;;17.67;16.33;;;;;;;;5098378;28;8809;-76
2021/10/16 08:22:44;;;;;;;;;14.67;14.33;;;;;;;;5097160;28;8821;-74
2021/10/16 08:25:13;;;;;;;;;15.33;14.00;;;;;;;;5097177;28;8814;-76
2021/10/16 08:27:39;;;;;;;;;18.00;18.00;;;;;;;;5096956;28;8777;-73
2021/10/16 08:30:05;;;;;;;;;16.00;14.67;;;;;;;;5097767;28;8810;-74
2021/10/16 08:32:30;;;;;;;;;20.25;17.50;;;;;;;;5096902;28;9640;-77
2021/10/16 08:34:56;;;;;;;;;19.33;18.67;;;;;;;;5098542;28;8785;-78
2021/10/16 08:37:26;;;;;;;;;21.00;19.00;;;;;;;;5096412;28;8863;-76
2021/10/16 08:39:54;;;;;;;;;20.75;19.75;;;;;;;;5096872;28;8828;-77
2021/10/16 08:42:20;;;;;;;;;17.00;15.25;;;;;;;;5096931;28;8773;-77
2021/10/16 08:44:45;;;;;;;;;16.67;16.33;;;;;;;;5096675;28;8857;-75
2021/10/16 08:47:12;;;;;;;;;18.33;17.33;;;;;;;;5098154;28;8900;-74
2021/10/16 08:49:38;;;;;;;;;17.75;16.00;;;;;;;;5096357;28;8975;-75
2021/10/16 08:52:03;;;;;;;;;15.67;15.67;;;;;;;;5095482;28;8790;-77
2021/10/16 08:54:29;;;;;;;;;16.00;14.33;;;;;;;;5098260;28;8870;-75
2021/10/16 08:56:54;;;;;;;;;14.67;14.00;;;;;;;;5097707;28;8798;-78
2021/10/16 08:59:22;;;;;;;;;13.67;13.00;;;;;;;;5096145;28;8797;-77
2021/10/16 09:01:55;;;;;;;;;12.75;12.75;;;;;;;;5096070;28;8742;-78
2021/10/16 09:04:21;;;;;;;;;13.00;13.00;;;;;;;;5097737;28;8766;-78
2021/10/16 09:06:49;;;;;;;;;11.75;11.00;;;;;;;;5096587;28;9344;-78
2021/10/16 09:09:17;;;;;;;;;12.50;12.50;;;;;;;;5096454;28;8812;-75
2021/10/16 09:11:49;;;;;;;;;13.75;12.00;;;;;;;;5096592;28;8841;-74
2021/10/16 09:14:18;;;;;;;;;14.00;13.50;;;;;;;;5095965;28;8811;-77
2021/10/16 09:16:46;;;;;;;;;10.75;10.75;;;;;;;;5096265;28;8819;-77
2021/10/16 09:19:13;;;;;;;;;13.00;12.75;;;;;;;;5097617;28;8758;-77
2021/10/16 09:21:57;;;;;;;;;12.75;12.75;;;;;;;;5095866;28;8817;-77
2021/10/16 09:24:25;;;;;;;;;13.25;11.00;;;;;;;;5094886;28;8804;-78
2021/10/16 09:27:11;;;;;;;;;11.25;11.25;;;;;;;;5095894;28;8781;-78
2021/10/16 09:29:38;;;;;;;;;13.50;12.75;;;;;;;;5097449;28;8789;-74
2021/10/16 09:32:05;;;;;;;;;15.25;13.75;;;;;;;;5117653;27;8789;-75
2021/10/16 09:34:35;;;;;;;;;10.75;10.75;;;;;;;;5116423;28;8783;-75
2021/10/16 09:37:05;;;;;;;;;12.50;12.25;;;;;;;;5116299;28;8765;-74
2021/10/16 09:39:31;;;;;;;;;16.25;12.75;;;;;;;;5117884;27;8805;-74
2021/10/16 09:41:56;;;;;;;;;13.00;12.00;;;;;;;;5118048;27;8791;-75
2021/10/16 09:44:39;;;;;;;;;13.67;12.00;;;;;;;;5117928;27;8833;-75
2021/10/16 09:47:05;;;;;;;;;11.50;11.00;;;;;;;;5115374;28;8925;-78
2021/10/16 09:49:35;;;;;;;;;10.67;10.67;;;;;;;;5116925;27;8886;-79
2021/10/16 09:52:01;;;;;;;;;11.00;10.00;;;;;;;;5116047;28;8818;-78
2021/10/16 09:54:30;;;;;;;;;12.75;12.25;;;;;;;;5116361;28;8739;-79
2021/10/16 09:56:59;;;;;;;;;13.25;12.25;;;;;;;;5117123;27;8751;-79
2021/10/16 09:59:25;;;;;;;;;14.50;12.50;;;;;;;;5116328;28;8791;-75
2021/10/16 10:01:50;;;;;;;;;12.00;10.00;;;;;;;;5115789;28;8864;-76
2021/10/16 10:04:17;;;;;;;;;11.67;11.33;;;;;;;;5117681;27;8799;-77
2021/10/16 10:06:44;;;;;;;;;11.25;11.25;;;;;;;;5115863;28;8782;-78
2021/10/16 10:09:10;;;;;;;;;11.50;11.50;;;;;;;;5117565;27;8875;-76
2021/10/16 10:11:38;;;;;;;;;12.00;11.33;;;;;;;;5117169;27;8934;-78
2021/10/16 10:14:04;;;;;;;;;14.50;11.25;;;;;;;;5115653;28;8756;-79
2021/10/16 10:16:32;;;;;;;;;12.33;12.33;;;;;;;;5114591;28;8803;-79
2021/10/16 10:19:03;;;;;;;;;11.25;11.25;;;;;;;;5115346;28;9795;-81
2021/10/16 10:21:37;;;;;;;;;10.75;9.75;;;;;;;;5117197;27;8775;-81
2021/10/16 10:27:14;;;;;;;;;9.00;9.00;;;;;;;;5116987;28;9622;-81
2021/10/16 10:29:51;;;;;;;;;4.25;4.00;;;;;;;;5111477;28;8806;-78
2021/10/16 10:32:21;;;;;;;;;4.25;4.25;;;;;;;;5094373;28;8824;-78
2021/10/16 10:35:04;;;;;;;;;7.25;4.50;;;;;;;;5096407;28;8819;-81
2021/10/16 10:44:04;;;;;;;;;5.50;3.75;;;;;;;;5031387;28;8785;-83
2021/10/16 10:46:37;;;;;;;;;3.25;2.75;;;;;;;;5094363;28;8774;-81
2021/10/16 10:49:06;;;;;;;;;2.75;2.25;;;;;;;;5096377;28;8809;-79
2021/10/16 10:51:36;;;;;;;;;3.00;2.00;;;;;;;;5094372;28;8809;-78
2021/10/16 10:54:08;;;;;;;;;1.50;1.25;;;;;;;;5096339;28;8908;-80
2021/10/16 10:56:37;;;;;;;;;3.00;3.00;;;;;;;;5095341;28;8774;-78
2021/10/16 10:59:03;;;;;;;;;2.75;2.75;;;;;;;;5099271;28;8776;-78
2021/10/16 11:01:49;;;;;;;;;4.75;4.00;;;;;;;;5107290;28;8802;-79
2021/10/16 11:04:34;;;;;;;;;3.00;2.00;;;;;;;;5106258;28;8787;-78
2021/10/16 11:07:05;;;;;;;;;2.00;1.50;;;;;;;;5102989;28;9728;-78
2021/10/16 11:09:36;;;;;;;;;1.00;1.00;;;;;;;;5100335;28;8835;-79
2021/10/16 11:12:08;;;;;;;;;0.00;0.00;;;;;;;;5106289;28;8815;-77
2021/10/16 11:14:38;;;;;;;;;1.00;1.00;;;;;;;;5115180;28;8799;-77
2021/10/16 11:17:05;;;;;;;;;0.00;0.00;;;;;;;;5109436;28;8764;-80
2021/10/16 11:19:47;;;;;;;;;0.25;0.25;;;;;;;;5094616;28;8793;-79
2021/10/16 11:22:12;;;;;;;;;0.25;0.25;;;;;;;;5094472;28;8806;-79
2021/10/16 11:24:39;;;;;;;;;0.67;0.67;;;;;;;;5097696;28;8802;-79
2021/10/16 11:27:09;;;;;;;;;0.00;0.00;;;;;;;;5098159;28;8924;-79
2021/10/16 11:29:39;;;;;;;;;1.25;0.25;;;;;;;;5099784;28;8786;-79
2021/10/16 11:32:18;;;;;;;;;0.00;0.00;;;;;;;;5118534;28;8875;-76
2021/10/16 11:34:57;;;;;;;;;0.00;0.00;;;;;;;;5120265;27;8759;-81
2021/10/16 11:37:43;;;;;;;;;2.00;1.00;;;;;;;;5119946;27;8787;-79
2021/10/16 11:40:15;;;;;;;;;1.25;1.00;;;;;;;;5119895;27;8760;-78
2021/10/16 11:42:45;;;;;;;;;2.00;1.50;;;;;;;;5118449;28;8814;-79
2021/10/16 11:45:13;;;;;;;;;2.00;1.75;;;;;;;;5119635;27;8763;-76
2021/10/16 11:47:40;;;;;;;;;0.00;0.00;;;;;;;;5119629;27;9723;-78
2021/10/16 11:50:12;;;;;;;;;0.00;0.00;;;;;;;;5119472;27;8826;-77
2021/10/16 11:52:38;;;;;;;;;0.00;0.00;;;;;;;;5119495;27;8775;-77
2021/10/16 11:55:08;;;;;;;;;1.00;1.00;;;;;;;;5119526;27;8795;-79
2021/10/16 11:57:34;;;;;;;;;2.00;1.25;;;;;;;;5119242;27;8770;-79
2021/10/16 12:00:14;;;;;;;;;2.00;0.00;;;;;;;;5119392;27;8922;-80
2021/10/16 12:02:39;;;;;;;;;1.00;1.00;;;;;;;;5119246;27;8771;-79
2021/10/16 12:05:09;;;;;;;;;0.00;0.00;;;;;;;;5117838;28;8864;-80
2021/10/16 12:07:34;;;;;;;;;2.00;1.00;;;;;;;;5119152;27;8799;-79
2021/10/16 12:10:18;;;;;;;;;0.33;0.33;;;;;;;;5119463;27;8844;-78
2021/10/16 12:13:00;;;;;;;;;0.50;0.50;;;;;;;;5119474;28;9701;-77
2021/10/16 12:15:31;;;;;;;;;1.25;1.25;;;;;;;;5119334;27;8755;-77
2021/10/16 12:17:57;;;;;;;;;1.00;0.25;;;;;;;;5117762;28;8783;-76
2021/10/16 12:20:22;;;;;;;;;1.00;1.00;;;;;;;;5119241;27;8803;-76
2021/10/16 12:22:57;;;;;;;;;1.33;1.00;;;;;;;;5101197;27;8819;-76
2021/10/16 12:25:22;;;;;;;;;1.00;1.00;;;;;;;;5097151;28;8786;-75
2021/10/16 12:27:58;;;;;;;;;3.00;3.00;;;;;;;;5096992;28;8837;-80
2021/10/16 12:30:23;;;;;;;;;2.75;2.50;;;;;;;;5107523;28;8751;-76
2021/10/16 12:33:04;;;;;;;;;3.33;3.33;;;;;;;;5117060;28;8933;-76
2021/10/16 12:35:30;;;;;;;;;0.00;0.00;;;;;;;;5115231;27;8776;-76
2021/10/16 12:37:56;;;;;;;;;1.00;1.00;;;;;;;;5118896;27;8793;-76
2021/10/16 12:40:33;;;;;;;;;1.00;1.00;;;;;;;;5118929;27;8834;-76
2021/10/16 12:42:58;;;;;;;;;1.25;1.25;;;;;;;;5119035;27;11234;-77
2021/10/16 12:45:34;;;;;;;;;2.33;0.67;;;;;;;;5119096;27;8791;-78
2021/10/16 12:48:19;;;;;;;;;1.50;1.50;;;;;;;;5117332;28;8787;-76
2021/10/16 12:50:55;;;;;;;;;1.00;1.00;;;;;;;;5116972;28;9808;-76
2021/10/16 12:53:20;;;;;;;;;2.25;2.00;;;;;;;;5117497;28;8799;-76
2021/10/16 12:55:46;;;;;;;;;1.67;1.67;;;;;;;;5118727;27;8787;-77
2021/10/16 12:58:11;;;;;;;;;1.00;1.00;;;;;;;;5118919;27;8799;-76
2021/10/16 13:00:40;;;;;;;;;1.00;1.00;;;;;;;;5118899;27;8827;-76
2021/10/16 13:03:07;;;;;;;;;1.00;1.00;;;;;;;;5117110;28;9325;-76
2021/10/16 13:05:32;;;;;;;;;3.00;2.00;;;;;;;;5118703;27;8782;-76
2021/10/16 13:07:58;;;;;;;;;0.67;0.67;;;;;;;;5117293;28;8818;-77
2021/10/16 13:10:23;;;;;;;;;2.00;1.00;;;;;;;;5118648;27;8815;-76
2021/10/16 13:12:48;;;;;;;;;1.00;1.00;;;;;;;;5118664;27;8791;-77
2021/10/16 13:15:14;;;;;;;;;1.00;1.00;;;;;;;;5118644;27;8803;-77
2021/10/16 13:17:40;;;;;;;;;1.00;1.00;;;;;;;;5116606;28;8787;-77
2021/10/16 13:20:06;;;;;;;;;1.00;1.00;;;;;;;;5117261;28;8868;-77
2021/10/16 13:22:31;;;;;;;;;0.75;0.75;;;;;;;;5118503;27;8759;-77
2021/10/16 13:24:59;;;;;;;;;0.33;0.33;;;;;;;;5118447;27;8895;-76
2021/10/16 13:27:24;;;;;;;;;0.25;0.25;;;;;;;;5118469;27;8712;-76
2021/10/16 13:29:49;;;;;;;;;0.00;0.00;;;;;;;;5112130;28;8852;-76
2021/10/16 13:32:15;;;;;;;;;1.00;1.00;;;;;;;;5097805;28;8836;-75
2021/10/16 13:34:42;;;;;;;;;1.00;1.00;;;;;;;;5097783;28;8829;-76
2021/10/16 13:37:07;;;;;;;;;0.50;0.50;;;;;;;;5097652;28;8794;-77
2021/10/16 13:39:33;;;;;;;;;2.00;1.00;;;;;;;;5097726;28;8849;-77
2021/10/16 13:41:58;;;;;;;;;1.00;1.00;;;;;;;;5096222;28;9646;-77
2021/10/16 13:44:24;;;;;;;;;1.67;1.67;;;;;;;;5097687;28;8794;-77
2021/10/16 13:46:49;;;;;;;;;0.75;0.50;;;;;;;;5096970;28;8814;-77
2021/10/16 13:49:14;;;;;;;;;0.00;0.00;;;;;;;;5097648;28;8797;-76
2021/10/16 13:51:39;;;;;;;;;1.00;1.00;;;;;;;;5097276;28;8825;-77
2021/10/16 13:54:07;;;;;;;;;2.00;2.00;;;;;;;;5097494;28;8813;-77
2021/10/16 13:56:33;;;;;;;;;1.75;1.00;;;;;;;;5097335;28;8778;-77
2021/10/16 13:58:58;;;;;;;;;2.00;0.75;;;;;;;;5097555;28;8802;-77
2021/10/16 14:01:23;;;;;;;;;1.00;1.00;;;;;;;;5097185;28;8813;-77
2021/10/16 14:03:48;;;;;;;;;1.67;1.67;;;;;;;;5097353;28;8822;-76
2021/10/16 14:06:13;;;;;;;;;0.33;0.33;;;;;;;;5095745;28;8829;-76
2021/10/16 14:08:39;;;;;;;;;2.00;2.00;;;;;;;;5097443;28;8816;-76
2021/10/16 14:11:04;;;;;;;;;1.67;1.67;;;;;;;;5097084;28;8841;-76
2021/10/16 14:13:29;;;;;;;;;1.67;1.00;;;;;;;;5097103;28;8802;-77
2021/10/16 14:15:55;;;;;;;;;0.33;0.00;;;;;;;;5097030;28;8837;-76
2021/10/16 14:18:20;;;;;;;;;0.67;0.67;;;;;;;;5097225;28;8789;-76
2021/10/16 14:20:45;;;;;;;;;2.00;2.00;;;;;;;;5097156;28;8876;-76
2021/10/16 14:23:10;;;;;;;;;0.67;0.00;;;;;;;;5095498;28;8844;-76
2021/10/16 14:25:36;;;;;;;;;1.67;1.67;;;;;;;;5097024;28;8789;-77
2021/10/16 14:28:01;;;;;;;;;2.33;1.67;;;;;;;;5095581;28;8933;-77
2021/10/16 14:30:26;;;;;;;;;2.00;1.00;;;;;;;;5106262;28;8847;-76
2021/10/16 14:32:52;;;;;;;;;0.33;0.33;;;;;;;;5115749;28;8833;-77
2021/10/16 14:35:17;;;;;;;;;0.33;0.33;;;;;;;;5117403;27;8787;-77
2021/10/16 14:37:42;;;;;;;;;1.00;1.00;;;;;;;;5117234;27;8923;-76
2021/10/16 14:40:07;;;;;;;;;1.00;1.00;;;;;;;;5117378;27;8822;-77
2021/10/16 14:42:33;;;;;;;;;1.00;1.00;;;;;;;;5117356;27;8791;-77
2021/10/16 14:44:59;;;;;;;;;1.00;1.00;;;;;;;;5117349;27;8913;-77